Kellogg, Idaho
Current Conditions -  °F | °C
As of 2:00 AM on Friday 21 Nov 2014 (Local Time) from KMLP Reporting Station
Moderate Fog Moderate Fog  
Wind Chill: 24°   Ceiling: 100
Heat Index: 29°   Visibility: 0.25mi
Dew Point: 29°   Wind: 5mph
Humidity: 100%   Direction: NA
Pressure: 29.88"   Gusts: NA
Location:  47.54°N, 116.12°W
Report Text: KMLP 211000Z AUTO VRB04KT 1/4SM FZFG VV001 M02/M02 A2988 RMK AO2 T10171017
Loading
Personal Weather Stations






























Interactive Weather Map New forecast layout! Learn more

10-Day Weather Forecast

Advertisements
Track Severe Weather on mobile